Time;durP1;ratioP1;P1;durP2;ratioP2;P2;SDS_P1;SDS_P2;PMS_P1;PMS_P2;Temp;Humidity;BMP_temperature;BMP_pressure;BME280_temperature;BME280_humidity;BME280_pressure;Samples;Min_cycle;Max_cycle;Signal;HPM_P1;HPM_P2
2022/07/15 00:02:23;;;;;;;10.48;2.30;;;14.30;99.90;;;;;;5047287;28;20160;-61
2022/07/15 00:04:49;;;;;;;7.32;2.50;;;14.40;99.90;;;;;;5048164;28;20134;-60
2022/07/15 00:07:15;;;;;;;6.43;2.42;;;14.30;99.90;;;;;;5029891;28;20534;-60
2022/07/15 00:12:26;;;;;;;;;;;14.40;99.90;;;;;;5050246;28;20381;-60
2022/07/15 00:14:52;;;;;;;10.80;2.47;;;14.30;99.90;;;;;;5048900;28;19917;-61
2022/07/15 00:17:18;;;;;;;7.10;2.10;;;14.30;99.90;;;;;;5047385;28;20044;-60
2022/07/15 00:19:43;;;;;;;9.52;2.05;;;14.30;99.90;;;;;;5048917;28;20029;-60
2022/07/15 00:22:09;;;;;;;11.40;2.38;;;14.40;99.90;;;;;;5049112;28;20047;-60
2022/07/15 00:24:35;;;;;;;7.28;2.47;;;14.40;99.90;;;;;;5044701;28;20052;-61
2022/07/15 00:27:02;;;;;;;6.20;2.53;;;14.40;99.90;;;;;;5029816;28;20480;-60
2022/07/15 00:29:28;;;;;;;8.57;2.78;;;14.40;99.90;;;;;;5026150;28;20112;-61
2022/07/15 00:31:54;;;;;;;4.65;1.75;;;14.50;99.90;;;;;;5044682;28;20079;-60
2022/07/15 00:34:20;;;;;;;7.30;2.13;;;14.50;99.90;;;;;;5047446;28;20098;-60
2022/07/15 00:36:47;;;;;;;8.73;2.50;;;14.50;99.90;;;;;;5048085;28;20036;-61
2022/07/15 00:39:16;;;;;;;8.77;1.88;;;14.60;99.90;;;;;;5031000;28;20032;-60
2022/07/15 00:41:43;;;;;;;7.72;1.95;;;14.60;99.90;;;;;;5051052;28;20339;-60
2022/07/15 00:44:09;;;;;;;6.88;2.17;;;14.60;99.90;;;;;;5046183;28;20094;-60
2022/07/15 00:46:35;;;;;;;7.75;2.08;;;14.60;99.90;;;;;;5046638;28;20044;-60
2022/07/15 00:49:04;;;;;;;6.95;1.83;;;14.70;99.90;;;;;;5029791;28;20048;-60
2022/07/15 00:51:44;;;;;;;6.25;1.98;;;14.70;99.90;;;;;;5049681;28;20033;-60
2022/07/15 00:54:11;;;;;;;9.95;2.30;;;14.70;99.90;;;;;;5042254;28;20132;-60
2022/07/15 00:56:42;;;;;;;7.80;1.88;;;14.80;99.90;;;;;;5043266;28;20041;-60
2022/07/15 00:59:09;;;;;;;7.45;1.80;;;14.80;99.90;;;;;;5032635;28;20049;-60
2022/07/15 01:01:35;;;;;;;8.25;2.00;;;14.80;99.90;;;;;;5033507;28;20044;-61
2022/07/15 01:04:03;;;;;;;7.05;2.10;;;14.80;99.90;;;;;;5046422;28;20029;-61
2022/07/15 01:06:29;;;;;;;9.45;1.70;;;14.90;99.90;;;;;;5027313;28;20037;-61
2022/07/15 01:08:55;;;;;;;7.43;2.00;;;14.90;99.90;;;;;;5046918;28;20041;-61
2022/07/15 01:11:20;;;;;;;8.05;2.22;;;14.90;99.90;;;;;;5042207;28;20037;-60
2022/07/15 01:13:50;;;;;;;9.82;2.10;;;15.00;99.90;;;;;;5019133;28;20615;-61
2022/07/15 01:16:15;;;;;;;8.55;2.03;;;15.00;99.90;;;;;;5044414;28;20036;-61
2022/07/15 01:18:41;;;;;;;7.90;2.40;;;15.00;99.90;;;;;;5054954;28;20326;-61
2022/07/15 01:21:07;;;;;;;6.93;2.17;;;15.00;99.90;;;;;;5049410;28;20054;-60
2022/07/15 01:23:32;;;;;;;6.70;1.90;;;15.00;99.90;;;;;;5035582;28;20182;-61
2022/07/15 01:25:58;;;;;;;8.32;1.95;;;15.00;99.90;;;;;;5050401;28;20498;-61
2022/07/15 01:28:24;;;;;;;5.13;2.10;;;15.10;99.90;;;;;;5034777;28;20033;-61
2022/07/15 01:30:50;;;;;;;9.20;2.15;;;15.10;99.90;;;;;;5050211;28;20044;-63
2022/07/15 01:33:15;;;;;;;9.70;2.00;;;15.00;99.90;;;;;;5052678;28;20094;-61
2022/07/15 01:35:43;;;;;;;7.10;2.13;;;15.10;99.90;;;;;;5054630;28;20139;-61
2022/07/15 01:38:09;;;;;;;6.65;1.98;;;15.10;99.90;;;;;;5026819;28;20144;-59
2022/07/15 01:40:34;;;;;;;7.72;1.83;;;15.10;99.90;;;;;;5052622;28;20047;-61
2022/07/15 01:43:00;;;;;;;7.05;1.92;;;15.00;99.90;;;;;;5028613;28;20038;-61
2022/07/15 01:45:26;;;;;;;12.27;2.20;;;15.10;99.90;;;;;;5028789;28;20037;-61
2022/07/15 01:47:52;;;;;;;10.90;2.72;;;15.10;99.90;;;;;;5027514;28;20077;-61
2022/07/15 01:50:19;;;;;;;7.40;2.45;;;15.00;99.90;;;;;;5049765;28;20033;-62
2022/07/15 01:52:44;;;;;;;9.60;2.60;;;15.00;99.90;;;;;;5047867;28;20400;-62
2022/07/15 01:55:11;;;;;;;9.40;2.08;;;15.00;99.90;;;;;;5045987;28;20048;-61
2022/07/15 01:57:36;;;;;;;8.55;2.15;;;15.00;99.90;;;;;;5048015;28;20343;-61
2022/07/15 02:00:04;;;;;;;7.22;2.40;;;14.90;99.90;;;;;;5044809;28;20131;-61
2022/07/15 02:02:30;;;;;;;7.80;2.20;;;14.90;99.90;;;;;;5016574;28;20037;-62
2022/07/15 02:04:55;;;;;;;8.90;2.17;;;14.90;99.90;;;;;;5045568;28;20095;-61
2022/07/15 02:07:21;;;;;;;8.77;2.45;;;14.90;99.90;;;;;;5046445;28;20044;-62
2022/07/15 02:09:47;;;;;;;6.90;1.98;;;14.90;99.90;;;;;;5028798;28;20037;-61
2022/07/15 02:12:13;;;;;;;9.05;2.20;;;14.90;99.90;;;;;;5047296;28;20116;-61
2022/07/15 02:14:38;;;;;;;8.13;2.35;;;14.90;99.90;;;;;;5029826;28;20453;-61
2022/07/15 02:17:05;;;;;;;8.07;2.28;;;14.90;99.90;;;;;;5043951;28;20041;-61
2022/07/15 02:19:30;;;;;;;7.07;1.90;;;14.80;99.90;;;;;;5029859;28;20048;-61
2022/07/15 02:21:56;;;;;;;6.53;1.95;;;14.90;99.90;;;;;;5051556;28;20188;-61
2022/07/15 02:24:22;;;;;;;7.90;2.00;;;14.80;99.90;;;;;;5024226;28;20369;-61
2022/07/15 02:26:48;;;;;;;7.10;2.28;;;14.70;99.90;;;;;;5027822;28;20037;-61
2022/07/15 02:29:15;;;;;;;8.40;2.33;;;14.70;99.90;;;;;;5042785;28;20194;-61
2022/07/15 02:31:41;;;;;;;7.68;2.58;;;14.70;99.90;;;;;;5028959;28;20371;-62
2022/07/15 02:34:07;;;;;;;6.70;2.25;;;14.60;99.90;;;;;;5049355;28;20037;-62
2022/07/15 02:36:33;;;;;;;8.73;2.20;;;14.60;99.90;;;;;;5049884;28;20037;-61
2022/07/15 02:38:59;;;;;;;8.15;2.40;;;14.60;99.90;;;;;;5030727;28;20040;-61
2022/07/15 02:41:24;;;;;;;7.03;2.00;;;14.60;99.90;;;;;;5050799;28;20370;-61
2022/07/15 02:43:51;;;;;;;5.55;2.17;;;14.50;99.90;;;;;;5048631;28;20123;-61
2022/07/15 02:46:17;;;;;;;8.50;2.40;;;14.40;99.90;;;;;;5031172;28;20037;-62
2022/07/15 02:48:42;;;;;;;5.90;1.88;;;14.40;99.90;;;;;;5049478;28;20458;-61
2022/07/15 02:51:09;;;;;;;9.38;2.17;;;14.40;99.90;;;;;;5034571;28;20133;-62
2022/07/15 02:53:35;;;;;;;7.40;2.38;;;14.40;99.90;;;;;;5032028;28;20498;-61
2022/07/15 02:56:01;;;;;;;7.90;2.28;;;14.30;99.90;;;;;;5050693;28;20083;-61
2022/07/15 02:58:29;;;;;;;7.10;2.35;;;14.40;99.90;;;;;;5030884;28;20041;-61
2022/07/15 03:00:55;;;;;;;6.97;2.03;;;14.30;99.90;;;;;;5035146;28;20048;-61
2022/07/15 03:03:20;;;;;;;7.70;2.47;;;14.20;99.90;;;;;;5046478;28;20033;-61
2022/07/15 03:05:46;;;;;;;7.10;2.15;;;14.20;99.90;;;;;;5050600;28;20035;-62
2022/07/15 03:08:12;;;;;;;7.50;2.20;;;14.20;99.90;;;;;;5031086;28;20048;-61
2022/07/15 03:10:38;;;;;;;6.45;2.13;;;14.20;99.90;;;;;;5049345;28;20028;-61
2022/07/15 03:13:04;;;;;;;10.30;2.33;;;14.10;99.90;;;;;;5030322;28;20489;-62
2022/07/15 03:15:29;;;;;;;7.40;2.42;;;14.10;99.90;;;;;;5024219;28;20033;-61
2022/07/15 03:17:55;;;;;;;6.47;2.40;;;14.10;99.90;;;;;;5049158;28;20430;-61
2022/07/15 03:20:22;;;;;;;10.38;2.42;;;14.10;99.90;;;;;;5034850;28;20032;-61
2022/07/15 03:22:48;;;;;;;6.40;2.15;;;14.00;99.90;;;;;;5032146;28;20051;-61
2022/07/15 03:25:14;;;;;;;9.43;2.03;;;14.00;99.90;;;;;;5044966;28;20041;-61
2022/07/15 03:27:39;;;;;;;8.60;2.28;;;14.00;99.90;;;;;;5019555;28;20308;-61
2022/07/15 03:30:05;;;;;;;7.75;1.95;;;13.90;99.90;;;;;;5030778;28;20037;-62
2022/07/15 03:32:31;;;;;;;6.93;2.40;;;13.90;99.90;;;;;;5030927;28;20461;-61
2022/07/15 03:34:57;;;;;;;8.55;2.55;;;13.90;99.90;;;;;;5049665;28;20068;-61
2022/07/15 03:37:23;;;;;;;6.00;2.00;;;14.00;99.90;;;;;;5049650;28;20442;-61
2022/07/15 03:39:48;;;;;;;8.70;2.15;;;13.90;99.90;;;;;;5032073;28;20037;-61
2022/07/15 03:42:14;;;;;;;9.07;3.10;;;14.00;99.90;;;;;;5032699;28;20120;-61
2022/07/15 03:44:41;;;;;;;6.88;2.40;;;14.00;99.90;;;;;;5045716;28;20056;-61
2022/07/15 03:47:07;;;;;;;8.50;2.53;;;13.90;99.90;;;;;;5033006;28;20421;-61
2022/07/15 03:49:32;;;;;;;10.60;2.35;;;13.90;99.90;;;;;;5048118;28;20032;-62
2022/07/15 03:51:58;;;;;;;7.30;2.25;;;13.90;99.90;;;;;;5051194;28;20132;-61
2022/07/15 03:54:24;;;;;;;8.80;2.22;;;13.90;99.90;;;;;;5047309;28;20050;-62
2022/07/15 03:56:50;;;;;;;6.45;2.08;;;14.00;99.90;;;;;;5049544;28;20029;-61
2022/07/15 03:59:17;;;;;;;8.20;2.05;;;13.90;99.90;;;;;;5049452;28;20044;-62
2022/07/15 04:01:43;;;;;;;8.73;2.38;;;13.90;99.90;;;;;;5032703;28;20037;-61
2022/07/15 04:04:09;;;;;;;8.90;2.13;;;14.00;99.90;;;;;;5030040;28;20056;-62
2022/07/15 04:06:35;;;;;;;10.45;2.13;;;13.90;99.90;;;;;;5044764;28;20048;-62
2022/07/15 04:09:02;;;;;;;9.70;2.35;;;13.90;99.90;;;;;;5030660;28;20060;-61
2022/07/15 04:11:28;;;;;;;8.93;2.30;;;13.90;99.90;;;;;;5032087;28;20037;-62
2022/07/15 04:13:55;;;;;;;8.73;2.70;;;14.00;99.90;;;;;;5044202;28;20037;-61
2022/07/15 04:16:20;;;;;;;9.95;1.95;;;14.00;99.90;;;;;;5027883;28;20051;-61
2022/07/15 04:18:46;;;;;;;6.43;1.65;;;14.00;99.90;;;;;;5048021;28;20178;-61
2022/07/15 04:21:12;;;;;;;9.65;2.03;;;14.00;99.90;;;;;;5016634;28;20045;-61
2022/07/15 04:23:38;;;;;;;8.45;2.15;;;14.00;99.90;;;;;;5028326;28;20500;-61
2022/07/15 04:26:03;;;;;;;8.05;1.95;;;13.90;99.90;;;;;;5026960;28;20128;-61
2022/07/15 04:28:29;;;;;;;8.32;2.15;;;14.00;99.90;;;;;;5031200;28;20075;-61
2022/07/15 04:30:55;;;;;;;9.73;2.20;;;14.10;99.90;;;;;;5027820;28;20119;-61
2022/07/15 04:33:21;;;;;;;8.95;1.98;;;14.20;99.90;;;;;;5047419;28;20043;-61
2022/07/15 04:35:47;;;;;;;6.32;1.65;;;14.10;99.90;;;;;;5028251;28;20041;-61
2022/07/15 04:38:14;;;;;;;8.68;2.30;;;14.10;99.90;;;;;;5030247;28;20051;-62
2022/07/15 04:40:40;;;;;;;8.15;1.90;;;14.20;99.90;;;;;;5045523;28;20032;-61
2022/07/15 04:43:06;;;;;;;7.47;1.73;;;14.20;99.90;;;;;;5046923;28;20038;-62
2022/07/15 04:45:32;;;;;;;8.27;1.67;;;14.10;99.90;;;;;;5029940;28;20036;-62
2022/07/15 04:47:59;;;;;;;9.20;1.88;;;14.20;99.90;;;;;;5027377;28;20505;-61
2022/07/15 04:53:09;;;;;;;7.93;1.67;;;14.20;99.90;;;;;;5030004;28;20077;-66
2022/07/15 04:55:34;;;;;;;3.05;1.30;;;14.20;99.90;;;;;;5033313;28;20080;-61
2022/07/15 04:58:00;;;;;;;5.47;1.70;;;14.30;99.90;;;;;;5027887;28;20038;-61
2022/07/15 05:00:26;;;;;;;10.10;2.22;;;14.60;99.90;;;;;;5047597;28;20041;-61
2022/07/15 05:02:52;;;;;;;5.97;1.38;;;15.30;99.90;;;;;;5036839;28;20378;-61
2022/07/15 05:05:18;;;;;;;4.93;1.55;;;16.30;99.90;;;;;;5025310;28;20041;-61
2022/07/15 05:07:45;;;;;;;4.97;1.35;;;17.10;99.90;;;;;;5024212;28;20559;-62
2022/07/15 05:10:12;;;;;;;7.00;1.33;;;17.80;99.90;;;;;;5048222;28;20052;-62
2022/07/15 05:12:38;;;;;;;5.47;1.38;;;18.50;99.90;;;;;;5027460;28;20109;-62
2022/07/15 05:15:04;;;;;;;5.63;1.30;;;19.10;99.90;;;;;;5028869;28;21100;-62
2022/07/15 05:17:31;;;;;;;7.20;1.30;;;19.60;99.90;;;;;;5023605;28;20113;-61
2022/07/15 05:19:56;;;;;;;5.35;1.38;;;19.90;99.90;;;;;;5051029;28;20539;-62
2022/07/15 05:22:22;;;;;;;4.55;1.17;;;20.00;99.90;;;;;;5032358;28;20041;-61
2022/07/15 05:24:48;;;;;;;6.28;1.20;;;20.20;99.90;;;;;;5027400;28;20458;-62
2022/07/15 05:27:14;;;;;;;7.35;1.27;;;20.50;99.90;;;;;;5036307;28;20045;-62
2022/07/15 05:29:40;;;;;;;4.07;1.20;;;20.90;99.90;;;;;;5045308;28;20116;-61
2022/07/15 05:32:06;;;;;;;3.75;1.10;;;21.20;99.90;;;;;;5049040;28;20127;-61
2022/07/15 05:34:32;;;;;;;3.15;0.68;;;21.40;99.90;;;;;;5030939;28;20049;-62
2022/07/15 05:36:58;;;;;;;4.47;1.48;;;21.60;99.90;;;;;;5043639;28;20037;-61
2022/07/15 05:39:24;;;;;;;6.15;1.38;;;21.90;99.90;;;;;;5047191;28;20041;-59
2022/07/15 05:41:50;;;;;;;4.25;0.95;;;22.30;99.90;;;;;;5042447;28;20041;-59
2022/07/15 05:44:16;;;;;;;5.45;1.40;;;22.60;99.90;;;;;;5049931;28;20033;-59
2022/07/15 05:46:42;;;;;;;3.25;0.90;;;22.40;99.60;;;;;;5045105;28;20067;-59
2022/07/15 05:49:08;;;;;;;2.63;0.90;;;22.30;99.50;;;;;;5046108;28;20424;-60
2022/07/15 05:51:36;;;;;;;4.43;1.00;;;22.20;99.60;;;;;;5048718;28;20144;-61
2022/07/15 05:54:02;;;;;;;0.98;0.70;;;22.50;99.40;;;;;;5049768;28;20040;-61
2022/07/15 05:56:28;;;;;;;4.43;0.82;;;22.90;99.10;;;;;;5048380;28;20060;-59
2022/07/15 05:58:54;;;;;;;7.18;1.27;;;23.40;98.50;;;;;;5039415;28;20525;-60
2022/07/15 06:01:21;;;;;;;3.70;0.65;;;23.50;98.10;;;;;;5030807;28;20397;-58
2022/07/15 06:03:47;;;;;;;4.50;0.90;;;23.50;97.60;;;;;;5044407;28;20455;-60
2022/07/15 06:06:16;;;;;;;7.03;1.67;;;23.40;97.30;;;;;;5046230;28;20186;-59
2022/07/15 06:08:42;;;;;;;2.95;0.90;;;23.20;97.40;;;;;;5047329;28;20036;-59
2022/07/15 06:11:08;;;;;;;3.38;0.90;;;23.50;97.20;;;;;;5050946;28;20174;-60
2022/07/15 06:13:34;;;;;;;6.03;1.10;;;23.50;97.00;;;;;;5030400;28;20376;-61
2022/07/15 06:15:59;;;;;;;2.28;0.68;;;23.30;96.70;;;;;;5047445;28;20033;-62
2022/07/15 06:18:25;;;;;;;2.00;0.63;;;23.50;96.60;;;;;;5050348;28;20037;-60
2022/07/15 06:20:51;;;;;;;1.90;0.80;;;23.40;96.50;;;;;;5035469;28;20044;-61
2022/07/15 06:23:17;;;;;;;3.03;0.60;;;23.80;96.50;;;;;;5030365;28;20052;-61
2022/07/15 06:25:43;;;;;;;3.17;0.65;;;24.30;96.20;;;;;;5047949;28;20346;-60
2022/07/15 06:28:10;;;;;;;3.08;0.68;;;24.70;95.70;;;;;;5051221;28;20060;-62
2022/07/15 06:30:39;;;;;;;1.63;0.73;;;24.90;95.20;;;;;;5023203;28;20118;-60
2022/07/15 06:33:04;;;;;;;2.20;0.63;;;25.10;94.40;;;;;;5060020;28;20044;-60
2022/07/15 06:35:30;;;;;;;2.97;0.80;;;25.00;94.70;;;;;;5058850;28;20032;-61
2022/07/15 06:37:55;;;;;;;1.65;0.68;;;24.80;94.30;;;;;;5045737;28;20458;-60
2022/07/15 06:40:21;;;;;;;3.05;0.60;;;24.60;94.00;;;;;;5048196;28;20033;-61
2022/07/15 06:42:47;;;;;;;3.60;0.70;;;24.10;93.90;;;;;;5047348;28;20033;-60
2022/07/15 06:45:12;;;;;;;2.78;0.82;;;24.10;94.30;;;;;;5047244;28;20051;-59
2022/07/15 06:47:42;;;;;;;3.40;0.88;;;24.10;94.40;;;;;;5048807;28;20104;-60
2022/07/15 06:50:08;;;;;;;3.58;1.33;;;23.70;94.00;;;;;;5028977;28;20473;-60
2022/07/15 06:52:34;;;;;;;7.88;2.70;;;23.90;94.30;;;;;;5054474;28;20044;-60
2022/07/15 06:55:00;;;;;;;7.13;2.25;;;24.10;94.40;;;;;;5050318;28;20052;-60
2022/07/15 06:57:28;;;;;;;7.65;2.58;;;24.30;94.30;;;;;;5048804;28;20032;-60
2022/07/15 06:59:54;;;;;;;2.35;0.90;;;24.30;94.00;;;;;;5045761;28;20076;-61
2022/07/15 07:02:19;;;;;;;5.13;0.82;;;24.20;93.70;;;;;;5035987;28;20142;-60
2022/07/15 07:04:45;;;;;;;1.77;0.90;;;23.90;93.90;;;;;;5050130;28;20032;-60
2022/07/15 07:07:11;;;;;;;3.67;0.82;;;23.20;94.60;;;;;;5049239;28;20051;-61
2022/07/15 07:09:37;;;;;;;1.85;0.77;;;22.60;95.00;;;;;;5046326;28;20037;-61
2022/07/15 07:12:03;;;;;;;1.33;0.50;;;22.10;95.50;;;;;;5050155;28;20037;-61
2022/07/15 07:14:28;;;;;;;2.88;0.57;;;21.70;96.10;;;;;;5047516;28;20358;-61
2022/07/15 07:16:54;;;;;;;2.05;0.50;;;21.30;96.30;;;;;;5028725;28;20493;-61
2022/07/15 07:19:20;;;;;;;1.15;0.47;;;21.20;96.40;;;;;;5050176;28;20362;-61
2022/07/15 07:21:45;;;;;;;2.53;0.50;;;21.30;96.60;;;;;;5050169;28;20420;-61
2022/07/15 07:24:11;;;;;;;0.55;0.30;;;21.40;96.40;;;;;;5044988;28;20482;-61
2022/07/15 07:26:37;;;;;;;1.20;0.30;;;21.00;96.20;;;;;;5047759;28;20144;-60
2022/07/15 07:29:03;;;;;;;0.95;0.30;;;21.00;96.50;;;;;;5048277;28;20069;-61
2022/07/15 07:31:29;;;;;;;0.35;0.32;;;20.90;96.80;;;;;;5044624;28;20079;-61
2022/07/15 07:33:56;;;;;;;1.65;0.40;;;20.80;96.70;;;;;;5053647;28;20068;-61
2022/07/15 07:36:22;;;;;;;1.63;0.40;;;20.80;97.00;;;;;;5046599;28;20051;-61
2022/07/15 07:38:48;;;;;;;1.23;0.40;;;20.90;97.00;;;;;;5049981;28;20037;-61
2022/07/15 07:41:14;;;;;;;2.40;0.38;;;20.90;96.60;;;;;;5046900;28;20136;-61
2022/07/15 07:43:40;;;;;;;2.55;0.93;;;20.60;96.60;;;;;;5048627;28;20029;-61
2022/07/15 07:46:06;;;;;;;3.08;0.80;;;20.80;96.90;;;;;;5048886;28;20044;-61
2022/07/15 07:48:31;;;;;;;1.77;0.52;;;20.90;96.90;;;;;;5047242;28;20043;-61
2022/07/15 07:50:58;;;;;;;1.83;0.47;;;20.90;96.80;;;;;;5050394;28;20112;-61
2022/07/15 07:53:24;;;;;;;1.77;0.68;;;20.80;97.10;;;;;;5048218;28;20033;-63
2022/07/15 07:55:50;;;;;;;5.43;0.57;;;20.90;96.90;;;;;;5031651;28;20103;-61
2022/07/15 07:58:16;;;;;;;1.27;0.57;;;20.80;96.90;;;;;;5044118;28;20061;-61
2022/07/15 08:00:43;;;;;;;1.42;0.45;;;20.90;97.20;;;;;;5049655;28;20037;-61
2022/07/15 08:03:09;;;;;;;3.40;0.77;;;20.80;97.10;;;;;;5032299;28;20111;-60
2022/07/15 08:05:34;;;;;;;2.15;0.50;;;20.70;97.10;;;;;;5047351;28;20040;-61
2022/07/15 08:08:09;;;;;;;1.83;0.68;;;20.80;97.30;;;;;;5047555;28;20045;-61
2022/07/15 08:10:34;;;;;;;5.10;1.63;;;20.90;97.00;;;;;;5048145;28;20044;-61
2022/07/15 08:13:01;;;;;;;1.85;0.68;;;20.90;97.00;;;;;;5034138;28;20051;-61
2022/07/15 08:15:26;;;;;;;1.25;0.55;;;20.90;96.90;;;;;;5046530;28;20034;-60
2022/07/15 08:17:52;;;;;;;2.30;0.60;;;20.90;97.00;;;;;;5029614;28;20470;-60
2022/07/15 08:20:18;;;;;;;2.78;0.60;;;20.90;97.00;;;;;;5048296;28;20043;-61
2022/07/15 08:22:44;;;;;;;2.83;0.70;;;20.90;97.20;;;;;;5045362;28;20439;-61
2022/07/15 08:25:09;;;;;;;1.60;0.22;;;21.00;96.90;;;;;;5046939;28;20084;-61
2022/07/15 08:27:35;;;;;;;3.28;0.57;;;21.00;97.00;;;;;;5046261;28;20029;-60
2022/07/15 08:30:01;;;;;;;2.20;0.45;;;21.00;96.70;;;;;;5047199;28;20033;-61
2022/07/15 08:32:32;;;;;;;1.38;0.50;;;21.00;96.80;;;;;;5036384;28;20044;-62
2022/07/15 08:34:57;;;;;;;2.30;0.52;;;21.00;96.50;;;;;;5053573;28;20105;-60
2022/07/15 08:37:26;;;;;;;1.83;0.52;;;20.90;96.50;;;;;;5050835;28;20040;-60
2022/07/15 08:39:52;;;;;;;1.00;0.40;;;20.60;96.70;;;;;;5041849;28;20041;-60
2022/07/15 08:42:18;;;;;;;0.82;0.35;;;20.60;96.80;;;;;;5044837;28;20094;-60
2022/07/15 08:44:43;;;;;;;0.90;0.38;;;20.70;96.40;;;;;;5037073;28;20092;-60
2022/07/15 08:47:10;;;;;;;1.35;0.50;;;20.90;96.10;;;;;;5034051;28;20179;-61
2022/07/15 08:49:39;;;;;;;2.13;0.70;;;20.90;95.80;;;;;;5037738;28;20038;-61
2022/07/15 08:52:06;;;;;;;1.85;0.50;;;20.90;95.50;;;;;;5038027;28;20132;-62
2022/07/15 08:54:32;;;;;;;2.25;0.65;;;21.00;95.50;;;;;;5031450;28;20084;-61
2022/07/15 08:56:58;;;;;;;0.40;0.40;;;21.10;95.20;;;;;;5040205;28;20072;-61
2022/07/15 08:59:25;;;;;;;2.58;0.50;;;21.20;95.10;;;;;;5040669;28;20528;-61
2022/07/15 09:01:50;;;;;;;2.20;0.50;;;21.20;95.40;;;;;;5044837;28;20151;-60
2022/07/15 09:04:17;;;;;;;0.90;0.38;;;21.20;95.70;;;;;;5042662;28;20115;-61
2022/07/15 09:06:46;;;;;;;1.50;0.50;;;21.10;95.70;;;;;;5046976;28;20351;-60
2022/07/15 09:09:31;;;;;;;2.00;0.50;;;21.10;95.10;;;;;;5048167;28;20033;-60
2022/07/15 09:12:05;;;;;;;1.33;0.45;;;21.00;95.10;;;;;;5050172;28;20063;-61
2022/07/15 09:14:33;;;;;;;0.88;0.35;;;21.00;95.50;;;;;;5028506;28;20033;-60
2022/07/15 09:17:18;;;;;;;0.75;0.30;;;21.10;96.10;;;;;;5040589;28;20041;-61
2022/07/15 09:20:04;;;;;;;2.83;0.80;;;21.00;96.00;;;;;;5045377;28;20258;-61
2022/07/15 09:22:32;;;;;;;2.88;0.70;;;20.90;96.30;;;;;;5045441;28;20045;-60
2022/07/15 09:25:17;;;;;;;3.25;0.80;;;20.90;96.20;;;;;;5045178;28;20085;-60
2022/07/15 09:27:44;;;;;;;2.45;0.77;;;20.80;96.70;;;;;;5028976;28;20037;-60
2022/07/15 09:36:04;;;;;;;1.15;0.50;;;21.00;96.70;;;;;;5043135;28;20426;-61
2022/07/15 09:38:40;;;;;;;2.58;0.57;;;20.70;97.00;;;;;;5045608;28;20052;-60
2022/07/15 09:41:26;;;;;;;1.27;0.47;;;20.80;97.40;;;;;;5042051;28;20531;-62
2022/07/15 09:43:56;;;;;;;1.88;0.70;;;21.00;97.50;;;;;;5048195;28;20040;-60
2022/07/15 09:46:28;;;;;;;1.70;0.50;;;21.00;97.00;;;;;;5047548;28;20037;-61
2022/07/15 09:48:54;;;;;;;2.70;0.60;;;20.90;97.30;;;;;;5033118;28;20461;-61
2022/07/15 09:51:21;;;;;;;3.42;0.75;;;21.00;97.20;;;;;;5049107;28;20462;-60
2022/07/15 09:53:47;;;;;;;3.55;1.30;;;20.90;97.30;;;;;;5051984;28;20032;-60
2022/07/15 09:56:22;;;;;;;2.47;0.65;;;20.90;97.40;;;;;;5051347;28;20033;-61
2022/07/15 09:58:49;;;;;;;1.65;0.70;;;20.80;97.60;;;;;;5046068;28;20083;-60
2022/07/15 10:01:15;;;;;;;3.25;0.98;;;20.80;97.70;;;;;;5046583;28;20132;-61
2022/07/15 10:03:41;;;;;;;2.17;0.52;;;20.70;97.90;;;;;;5037840;28;20112;-60
2022/07/15 10:06:09;;;;;;;3.30;0.50;;;20.60;97.60;;;;;;5044095;28;20098;-61
2022/07/15 10:08:36;;;;;;;1.48;0.75;;;20.60;97.50;;;;;;5011053;28;20610;-61
2022/07/15 10:11:09;;;;;;;6.30;0.95;;;20.50;98.20;;;;;;5049958;28;20116;-61
2022/07/15 10:13:44;;;;;;;4.77;0.90;;;20.40;98.40;;;;;;5041699;28;20101;-60
2022/07/15 10:16:30;;;;;;;1.48;0.47;;;20.40;98.50;;;;;;5047871;28;20111;-60
2022/07/15 10:19:14;;;;;;;5.38;1.40;;;20.40;98.80;;;;;;5052532;28;20532;-60
2022/07/15 10:21:56;;;;;;;10.98;3.00;;;20.50;98.60;;;;;;5050807;28;20037;-59
2022/07/15 10:25:08;;;;;;;4.18;1.00;;;20.50;98.30;;;;;;5046129;28;20423;-61
2022/07/15 10:27:56;;;;;;;3.80;0.85;;;20.60;98.10;;;;;;5019679;28;20120;-61
2022/07/15 10:30:24;;;;;;;3.80;0.80;;;20.80;97.90;;;;;;5049526;28;20068;-61
2022/07/15 10:33:14;;;;;;;4.15;0.80;;;20.80;97.40;;;;;;5048755;28;20045;-61
2022/07/15 10:35:45;;;;;;;4.82;0.60;;;21.00;97.50;;;;;;5030782;28;20478;-61
2022/07/15 10:38:23;;;;;;;3.58;0.95;;;20.70;97.90;;;;;;5050522;28;20121;-61
2022/07/15 10:41:01;;;;;;;2.70;0.70;;;20.90;97.80;;;;;;5047352;28;20052;-60
2022/07/15 10:43:40;;;;;;;1.70;0.60;;;20.80;97.40;;;;;;5050938;28;20081;-60
2022/07/15 10:46:28;;;;;;;0.77;0.50;;;20.80;97.30;;;;;;5048114;28;20098;-60
2022/07/15 10:48:59;;;;;;;1.85;0.70;;;20.70;97.00;;;;;;5051425;28;20076;-61
2022/07/15 10:51:37;;;;;;;1.40;0.77;;;21.00;97.30;;;;;;5048563;28;20052;-61
2022/07/15 10:54:03;;;;;;;4.30;1.10;;;21.00;96.70;;;;;;5031834;28;20219;-62
2022/07/15 10:56:43;;;;;;;8.25;1.13;;;21.00;97.10;;;;;;5049630;28;20079;-61
2022/07/15 10:59:15;;;;;;;4.78;0.75;;;21.00;97.30;;;;;;5056953;28;20044;-60
2022/07/15 11:02:03;;;;;;;3.90;0.88;;;20.80;97.60;;;;;;5038418;28;20049;-60
2022/07/15 11:04:31;;;;;;;3.13;0.80;;;20.90;97.60;;;;;;5044440;28;20378;-61
2022/07/15 11:07:03;;;;;;;2.13;0.80;;;21.00;97.70;;;;;;5047656;28;20083;-62
2022/07/15 11:09:45;;;;;;;1.48;0.77;;;21.20;97.20;;;;;;5063669;28;20083;-61
2022/07/15 11:12:11;;;;;;;2.28;0.70;;;21.40;97.40;;;;;;5059495;28;20045;-60
2022/07/15 11:15:00;;;;;;;1.80;0.95;;;21.50;97.20;;;;;;5060021;28;20123;-60
2022/07/15 11:17:28;;;;;;;1.75;0.80;;;21.50;96.60;;;;;;5046830;28;20355;-60
2022/07/15 11:20:26;;;;;;;4.07;1.10;;;21.40;96.70;;;;;;5032205;28;20083;-61
2022/07/15 11:22:54;;;;;;;4.18;1.23;;;21.20;97.20;;;;;;5029652;28;20050;-61
2022/07/15 11:25:25;;;;;;;2.38;0.70;;;21.10;97.50;;;;;;5027680;28;20076;-61
2022/07/15 11:28:06;;;;;;;3.22;0.80;;;21.00;97.50;;;;;;5047332;28;20522;-60
2022/07/15 11:30:41;;;;;;;5.05;0.70;;;20.80;97.60;;;;;;5045258;28;20082;-61
2022/07/15 11:33:10;;;;;;;5.35;1.33;;;20.70;98.40;;;;;;5047702;28;20050;-61
2022/07/15 11:35:52;;;;;;;2.70;0.90;;;20.70;98.70;;;;;;5048839;28;20044;-61
2022/07/15 11:38:22;;;;;;;2.85;1.10;;;20.80;99.10;;;;;;5049509;28;20048;-61
2022/07/15 11:46:22;;;;;;;3.28;0.90;;;21.60;97.30;;;;;;5049202;28;20099;-61
2022/07/15 11:48:49;;;;;;;3.45;0.85;;;21.60;97.30;;;;;;5048560;28;20037;-60
2022/07/15 11:51:15;;;;;;;3.90;1.00;;;21.80;97.80;;;;;;5045777;28;20059;-62
2022/07/15 11:53:47;;;;;;;3.05;0.60;;;21.80;97.80;;;;;;5049126;28;20099;-61
2022/07/15 11:56:14;;;;;;;8.98;1.63;;;21.70;98.10;;;;;;5031514;28;20430;-61
2022/07/15 11:58:46;;;;;;;2.95;0.90;;;21.90;97.50;;;;;;5046652;28;20419;-61
2022/07/15 12:01:14;;;;;;;3.97;0.80;;;22.00;96.70;;;;;;5049321;28;20124;-61
2022/07/15 12:03:42;;;;;;;2.00;0.70;;;22.10;96.50;;;;;;5045233;28;20048;-61
2022/07/15 12:06:20;;;;;;;3.92;1.00;;;22.10;96.70;;;;;;5047812;28;20041;-61
2022/07/15 12:08:47;;;;;;;6.57;1.90;;;22.30;97.10;;;;;;5040461;28;20174;-61
2022/07/15 12:11:19;;;;;;;2.72;0.90;;;22.20;97.10;;;;;;5046391;28;20037;-61
2022/07/15 12:14:07;;;;;;;2.30;0.73;;;22.30;96.70;;;;;;5044695;28;20159;-60
2022/07/15 12:16:45;;;;;;;8.38;0.95;;;22.30;97.00;;;;;;5018938;28;20085;-61
2022/07/15 12:19:27;;;;;;;2.70;1.13;;;22.60;97.20;;;;;;5050115;28;20052;-60
2022/07/15 12:21:58;;;;;;;3.30;0.82;;;22.70;96.60;;;;;;5043560;28;20033;-61
2022/07/15 12:24:41;;;;;;;2.40;0.60;;;22.90;96.40;;;;;;5040829;28;20061;-61
2022/07/15 12:27:07;;;;;;;2.35;0.77;;;23.00;96.10;;;;;;5048364;28;20394;-61
2022/07/15 12:29:34;;;;;;;1.80;0.60;;;22.90;96.20;;;;;;5041227;28;20403;-60
2022/07/15 12:32:02;;;;;;;5.47;1.20;;;22.60;96.00;;;;;;5045048;28;20060;-61
2022/07/15 12:34:46;;;;;;;5.45;0.82;;;22.50;96.40;;;;;;5045638;28;20105;-61
2022/07/15 12:37:22;;;;;;;7.97;1.00;;;22.60;96.70;;;;;;5047593;28;20462;-61
2022/07/15 12:39:57;;;;;;;4.80;0.52;;;22.50;96.60;;;;;;5035092;28;20152;-61
2022/07/15 12:42:24;;;;;;;5.05;1.00;;;22.30;96.00;;;;;;5041223;28;20135;-61
2022/07/15 12:45:12;;;;;;;3.88;0.65;;;22.10;96.20;;;;;;5027185;28;20033;-61
2022/07/15 12:48:02;;;;;;;4.55;0.80;;;21.90;96.50;;;;;;5026432;28;20056;-61
2022/07/15 12:50:47;;;;;;;1.77;0.75;;;22.20;96.80;;;;;;5028104;28;20072;-61
2022/07/15 12:53:13;;;;;;;1.75;0.57;;;22.40;96.60;;;;;;5046823;28;20049;-61
2022/07/15 12:55:45;;;;;;;1.33;0.70;;;22.20;96.00;;;;;;5053683;28;20493;-61
2022/07/15 12:58:22;;;;;;;3.85;0.90;;;22.20;96.30;;;;;;5046525;28;20036;-62
2022/07/15 13:00:48;;;;;;;3.80;0.70;;;22.50;96.50;;;;;;5014781;28;20123;-61
2022/07/15 13:03:22;;;;;;;3.65;0.85;;;22.50;96.30;;;;;;5045028;28;20128;-61
2022/07/15 13:05:50;;;;;;;4.32;0.95;;;22.70;96.20;;;;;;5046400;28;20041;-60
2022/07/15 13:08:28;;;;;;;2.13;0.90;;;22.80;96.20;;;;;;5028715;28;20045;-60
2022/07/15 13:10:56;;;;;;;3.38;0.60;;;22.70;95.90;;;;;;5047814;28;20041;-61